Hauptseite
METAR-TAF:

METAR-TAF

Flughäfen :

Cranfield Airport

Cranfield, England

Breite: 52-04N, Länge: 000-37W, Höhe: 111 m

Beobachtung

Neuester Wetterbericht von vor 12 Minuten, um 13:20 UTC
Wind 8 kt aus Südwest, variierte zwischen Süd und West
Temperatur 20°C
Luftfeuchtigkeit 46%
Luftdruck 1015 hPa
Sichtweite 10 km oder mehr
keine Wolken unter 1500 m und keine Kumulonimbus oder Gewitterwolken

METAR: EGTC 231320Z 22008KT 170V260 CAVOK 20/08 Q1015

Zeit: 14:32 (13:32 UTC)

Prognose

Neuester Wetterbericht von vor 2 Stunden und 36 Minuten, um 10:56 UTC
Gültige Prognose vom 23 um 12 UTC bis 23 um 18 UTC
Wind 6 kt aus West/Südwest
Sichtweite 10 km oder mehr
Leicht bewölkt in der Höhe von 4500 ft

TAF: EGTC 231056Z 2312/2318 24006KT 9999 FEW045

Wetterbeobachtungen und Prognosen von mehr als 4000 Flughäfen (METAR und TAF Bericht).

Die verfügbaren Stationen werden durch gelbe und rote Markierungen auf der Karte dargestellt.

Führen Sie die Maus auf sie, um den Namen der Station zu sehen.

Darauf klicken, um die Beobachtung von Wetterbeobachtungen und Prognosen zu sehen.

Um die Karte zu ändern : klicken Sie auf den grünen Tasten mit einem schwarzen Kreuz Zum Vergrößern, auf den grünen Button mit einem Gedankenstrich zu verkleinern, oder auf die grünen Pfeile für benachbarte Karten.


METAR-TAF: